ZWWW/URC METAR and TAF weather

Enter ICAO airport designator
Station Type Date Time Source
ZWWW METAR 2019/08/22 04:30 UTC NOAA

ZWWW 220430Z 06003MPS 020V130 CAVOK 31/08 Q1010 NOSIG


Station Type Date Time Source
ZWWW Decoded METAR 2019/08/22 04:30 UTC NOAA

Station name not available
Aug 22, 2019 - 12:30 AM EDT / 2019.08.22 0430 UTC
Wind: from the ENE (060 degrees) at 7 MPH (6 KT) (direction variable):0
Visibility: greater than 7 mile(s):0
Temperature: 87 F (31 C)
Dew Point: 46 F (8 C)
Relative Humidity: 23%
Pressure (altimeter): 29.83 in. Hg (1010 hPa)
ob: ZWWW 220430Z 06003MPS 020V130 CAVOK 31/08 Q1010 NOSIG
cycle: 4

Station Type Date Time Source
ZWWW TAF 2019/08/22 06:03 UTC NOAA

TAF ZWWW 220305Z 2206/2306 02004MPS CAVOK TX33/2209Z TN23/2223Z
BECMG 2213/2214 16004MPS
BECMG 2302/2303 36004MPS

Example: see airport list